Pagrindinis puslapis
METAR-TAF:

METAR-TAF

Oro uostai :

Jezdas, Iranas

platuma: 31-54N, ilguma: 054-24E, Aukštis: 1238 m

Dabartinis oras

Ataskaita buvo paskelbta 1 valandą ir 4 minutes, ne 21:00 UTC
Vėjas 4 kt iš Pietų/Pietryčių
Temperatūra 25°C
Drėgmė 19%
Slėgis 1016 hPa
Matomumas 10 km arba daugiau
nėra debesų žemiau 1500 m ir nėra kamuolinių lietaus debesų

METAR: OIYY 242100Z 16004KT CAVOK 25/M00 Q1016

Laikas: 01:34 (22:04 UTC)

Prognozė

Ataskaita buvo paskelbta 1 valandą ir 59 minutes, ne 20:05 UTC
Prognozė galioja nuo 24 metu 21 UTC su 25 metu 06 UTC
Vėjas 6 kt iš Pietvakarių
Matomumas 10 km arba daugiau
nėra debesų žemiau 1500 m ir nėra kamuolinių lietaus debesų

TAF: OIYY 242005Z 2421/2506 22006KT CAVOK

Orai ataskaitas ir orų prognozės (METAR, TAF).

turimą stotys yra geltonos ir raudonos taškus žemėlapyje.

Perkelti pele per norėdami pamatyti stoties vardą.

Tada spustelėkite, norėdami matyti oro stebėjimo ir prognozės.

Norėdami pakeisti žemėlapį: spustelėkite ant žalios mygtukų su juodo kryžiaus žemyn,; žalią mygtuką su brūkšneliu, jei norite nutolinti; arba žalių rodyklių gretimoms žemėlapius.


METAR-TAF: